الصفحة الرئيسية
METAR-TAF:

METAR-TAF

مطار :

مطار نيو اورليانز لويس أرمسترونغ الدولي

نيو أورلينز, لويزيانا, الولايات المتحدة

دائرة عرض: 29-59-34N, خط طول: 090-15-03W, ارتفاع: 1 متر

مراقبة الطقس الحالي

تاريخ ووقت الإصدار 56 دقيقة قبل الساعة 15:53UTC
ريح 8 عقدة من الشمال تتزايد حتى 15 عقدة
درجة الحرارة 6°درجة مئوية
الرطوبة 56%
ضغط 1034 hPa
الرؤية: 16.1 كم
غيوم قليلة على ارتفاع 25000 قدم

METAR: KMSY 211553Z 36008G15KT 10SM FEW250 06/M02 A3054 RMK AO2 SLP345 T00611022

زمن: 10:49 (16:49 UTC)

توقعات

تاريخ ووقت الإصدار 5ساعات و 29 دقيقة قبل الساعة 11:20UTC
التوقعات صالحة من21 الساعة 12 UTC إلى 22 الساعة 18 UTC
ريح 12 عقدة من الشمال/الشمال الشرقي تتزايد حتى 18 عقدة
الرؤية: 10 كم
سماء صافية
من 22 الساعة 0200 UTC
ريح 9 عقدة من الشرق/الشمال الشرقي
الرؤية: 10 كم
غيوم مفككة على ارتفاع 25000 قدم

TAF: KMSY 211120Z 2112/2218 02012G18KT P6SM SKC FM220200 06009KT P6SM BKN250

أرصاد الطقس والتوقعات من أكثر من 4000 مطار (تقارير الطقس للمطار METAR والتنبؤ بالطقس بالمطارTAF).

المحطات المتاحة هي النقط الصفراء والحمراء على الخريطة.

حرك المؤشر فوق النقطة لمعرفة اسم المحطة.

ثم انقر لمعرفة أرصاد وتوقعات الطقس.

لتغيير الخارطة: اضغط على الأزرار الخضراء مع رمز الصليب الأسود للتكبير. على الزر الأخضر مع شرطة للتصغير، أو على الأسهم الخضراء للخرائط المجاورة.


METAR-TAF: